createdAt,value
2022-10-09T00:01:46.043Z,100.00
2022-10-09T00:04:13.315Z,100.00
2022-10-09T00:06:40.312Z,100.00
2022-10-09T00:09:07.532Z,100.00
2022-10-09T00:11:34.988Z,100.00
2022-10-09T00:14:02.943Z,100.00
2022-10-09T00:16:30.158Z,100.00
2022-10-09T00:18:58.319Z,100.00
2022-10-09T00:21:30.455Z,100.00
2022-10-09T00:23:59.390Z,100.00
2022-10-09T00:26:27.167Z,100.00
2022-10-09T00:28:54.588Z,100.00
2022-10-09T00:31:22.683Z,100.00
2022-10-09T00:33:49.794Z,100.00
2022-10-09T00:36:21.788Z,100.00
2022-10-09T00:38:49.627Z,100.00
2022-10-09T00:41:26.499Z,100.00
2022-10-09T00:43:56.696Z,100.00
2022-10-09T00:46:41.947Z,100.00
2022-10-09T00:49:17.534Z,100.00
2022-10-09T00:51:46.307Z,100.00
2022-10-09T00:54:15.792Z,100.00
2022-10-09T00:56:42.987Z,100.00
2022-10-09T00:59:11.174Z,100.00
2022-10-09T01:01:39.896Z,100.00
2022-10-09T01:04:07.088Z,100.00
2022-10-09T01:07:11.229Z,100.00
2022-10-09T01:09:44.220Z,100.00
2022-10-09T01:12:12.993Z,100.00
2022-10-09T01:14:50.250Z,100.00
2022-10-09T01:17:36.681Z,100.00
2022-10-09T01:20:28.977Z,100.00
2022-10-09T01:23:35.210Z,100.00
2022-10-09T01:26:39.319Z,100.00
2022-10-09T01:29:08.101Z,100.00
2022-10-09T01:31:38.641Z,100.00
2022-10-09T01:34:06.671Z,100.00
2022-10-09T01:36:34.566Z,100.00
2022-10-09T01:39:03.872Z,100.00
2022-10-09T01:41:31.135Z,100.00
2022-10-09T01:43:58.136Z,100.00
2022-10-09T01:46:30.962Z,100.00
2022-10-09T01:49:23.218Z,100.00
2022-10-09T01:52:11.594Z,100.00
2022-10-09T01:54:41.543Z,100.00
2022-10-09T01:57:10.566Z,100.00
2022-10-09T01:59:39.823Z,100.00
2022-10-09T02:02:07.871Z,100.00
2022-10-09T02:04:37.517Z,100.00
2022-10-09T02:07:05.085Z,100.00
2022-10-09T02:09:32.875Z,100.00
2022-10-09T02:12:04.323Z,100.00
2022-10-09T02:14:31.341Z,100.00
2022-10-09T02:17:05.282Z,100.00
2022-10-09T02:19:46.075Z,100.00
2022-10-09T02:22:17.739Z,100.00
2022-10-09T02:24:45.273Z,100.00
2022-10-09T02:27:13.257Z,100.00
2022-10-09T02:29:42.061Z,100.00
2022-10-09T02:32:10.291Z,100.00
2022-10-09T02:34:37.390Z,100.00
2022-10-09T02:37:04.494Z,100.00
2022-10-09T02:39:31.805Z,100.00
2022-10-09T02:41:58.821Z,100.00
2022-10-09T02:44:25.897Z,100.00
2022-10-09T02:46:53.532Z,100.00
2022-10-09T02:49:20.634Z,100.00
2022-10-09T02:51:47.969Z,100.00
2022-10-09T02:54:15.258Z,100.00
2022-10-09T02:56:42.240Z,100.00
2022-10-09T02:59:09.353Z,100.00
2022-10-09T03:01:36.826Z,100.00
2022-10-09T03:04:04.435Z,100.00
2022-10-09T03:06:31.822Z,100.00
2022-10-09T03:08:59.115Z,100.00
2022-10-09T03:11:26.634Z,100.00
2022-10-09T03:13:54.599Z,100.00
2022-10-09T03:16:24.122Z,100.00
2022-10-09T03:18:52.183Z,100.00
2022-10-09T03:21:21.495Z,100.00
2022-10-09T03:23:50.152Z,100.00
2022-10-09T03:26:20.433Z,100.00
2022-10-09T03:28:49.010Z,100.00
2022-10-09T03:31:39.311Z,100.00
2022-10-09T03:34:04.939Z,100.00
2022-10-09T03:36:32.217Z,100.00
2022-10-09T03:38:59.639Z,100.00
2022-10-09T03:41:26.654Z,100.00
2022-10-09T03:43:53.971Z,100.00
2022-10-09T03:46:21.022Z,100.00
2022-10-09T03:48:48.107Z,100.00
2022-10-09T03:51:15.402Z,100.00
2022-10-09T03:53:42.416Z,100.00
2022-10-09T03:56:09.411Z,100.00
2022-10-09T03:58:36.723Z,100.00
2022-10-09T04:01:03.803Z,100.00
2022-10-09T04:03:31.205Z,100.00
2022-10-09T04:05:58.179Z,100.00
2022-10-09T04:08:25.337Z,100.00
2022-10-09T04:10:59.785Z,100.00
2022-10-09T04:13:27.156Z,100.00
2022-10-09T04:15:55.131Z,100.00
2022-10-09T04:18:22.772Z,100.00
2022-10-09T04:20:51.236Z,100.00
2022-10-09T04:23:19.516Z,100.00
2022-10-09T04:25:46.795Z,100.00
2022-10-09T04:28:14.005Z,100.00
2022-10-09T04:30:41.380Z,100.00
2022-10-09T04:33:12.705Z,100.00
2022-10-09T04:35:44.261Z,100.00
2022-10-09T04:38:11.776Z,100.00
2022-10-09T04:40:38.765Z,100.00
2022-10-09T04:43:05.784Z,100.00
2022-10-09T04:45:33.443Z,100.00
2022-10-09T04:48:00.448Z,100.00
2022-10-09T04:50:27.447Z,100.00
2022-10-09T04:52:58.028Z,100.00
2022-10-09T04:55:25.065Z,100.00
2022-10-09T04:57:52.066Z,100.00
2022-10-09T05:00:19.450Z,100.00
2022-10-09T05:02:46.630Z,100.00
2022-10-09T05:05:14.173Z,100.00
2022-10-09T05:07:41.441Z,100.00
2022-10-09T05:10:08.746Z,100.00
2022-10-09T05:12:35.718Z,100.00
2022-10-09T05:15:03.125Z,100.00
2022-10-09T05:17:30.178Z,100.00
2022-10-09T05:19:57.191Z,100.00
2022-10-09T05:22:24.872Z,100.00
2022-10-09T05:24:51.829Z,100.00
2022-10-09T05:27:18.834Z,100.00
2022-10-09T05:29:46.119Z,100.00
2022-10-09T05:32:13.287Z,100.00
2022-10-09T05:34:40.394Z,100.00
2022-10-09T05:37:07.666Z,100.00
2022-10-09T05:39:36.010Z,100.00
2022-10-09T05:42:03.140Z,100.00
2022-10-09T05:44:30.432Z,100.00
2022-10-09T05:46:57.401Z,100.00
2022-10-09T05:49:24.510Z,100.00
2022-10-09T05:51:51.818Z,100.00
2022-10-09T05:54:18.814Z,100.00
2022-10-09T05:56:46.112Z,100.00
2022-10-09T05:59:15.848Z,100.00
2022-10-09T06:01:45.074Z,100.00
2022-10-09T06:04:15.768Z,100.00
2022-10-09T06:06:43.285Z,100.00
2022-10-09T06:09:11.636Z,100.00
2022-10-09T06:11:39.585Z,100.00
2022-10-09T06:14:09.246Z,100.00
2022-10-09T06:16:42.173Z,100.00
2022-10-09T06:19:12.542Z,100.00
2022-10-09T06:21:39.732Z,100.00
2022-10-09T06:24:07.174Z,100.00
2022-10-09T06:26:34.976Z,100.00
2022-10-09T06:29:02.499Z,100.00
2022-10-09T06:31:32.325Z,100.00
2022-10-09T06:34:01.065Z,100.00
2022-10-09T06:36:30.165Z,100.00
2022-10-09T06:38:59.370Z,100.00
2022-10-09T06:41:28.265Z,100.00
2022-10-09T06:44:00.209Z,100.00
2022-10-09T06:46:39.414Z,100.00
2022-10-09T06:49:07.523Z,100.00
2022-10-09T06:51:35.188Z,100.00
2022-10-09T06:54:05.011Z,100.00
2022-10-09T06:56:32.419Z,100.00
2022-10-09T06:59:00.845Z,100.00
2022-10-09T07:01:32.443Z,100.00
2022-10-09T07:04:06.979Z,100.00
2022-10-09T07:06:37.669Z,100.00
2022-10-09T07:09:07.036Z,100.00
2022-10-09T07:11:39.612Z,100.00
2022-10-09T07:14:08.674Z,100.00
2022-10-09T07:16:37.956Z,100.00
2022-10-09T07:19:07.754Z,100.00
2022-10-09T07:21:35.767Z,100.00
2022-10-09T07:24:03.940Z,100.00
2022-10-09T07:26:32.947Z,100.00
2022-10-09T07:29:00.489Z,100.00
2022-10-09T07:31:27.532Z,100.00
2022-10-09T07:33:56.857Z,100.00
2022-10-09T07:36:24.776Z,100.00
2022-10-09T07:38:53.550Z,100.00
2022-10-09T07:41:21.198Z,100.00
2022-10-09T07:43:48.504Z,100.00
2022-10-09T07:46:17.868Z,100.00
2022-10-09T07:48:45.759Z,100.00
2022-10-09T07:51:18.681Z,100.00
2022-10-09T07:53:46.263Z,100.00
2022-10-09T07:56:17.908Z,100.00
2022-10-09T07:58:53.063Z,100.00
2022-10-09T08:01:21.275Z,100.00
2022-10-09T08:03:49.530Z,100.00
2022-10-09T08:06:17.440Z,100.00
2022-10-09T08:08:44.752Z,100.00
2022-10-09T08:11:14.947Z,100.00
2022-10-09T08:13:42.439Z,100.00
2022-10-09T08:16:09.632Z,100.00
2022-10-09T08:18:37.039Z,100.00
2022-10-09T08:21:14.724Z,100.00
2022-10-09T08:23:42.446Z,100.00
2022-10-09T08:26:18.370Z,100.00
2022-10-09T08:28:57.513Z,100.00
2022-10-09T08:31:25.254Z,100.00
2022-10-09T08:33:56.556Z,100.00
2022-10-09T08:36:24.099Z,100.00
2022-10-09T08:38:51.540Z,100.00
2022-10-09T08:41:34.061Z,100.00
2022-10-09T08:44:13.328Z,100.00
2022-10-09T08:47:10.815Z,100.00
2022-10-09T08:49:37.727Z,100.00
2022-10-09T08:52:21.599Z,100.00
2022-10-09T08:54:50.053Z,100.00
2022-10-09T08:57:17.805Z,100.00
2022-10-09T08:59:44.960Z,100.00
2022-10-09T09:02:38.068Z,100.00
2022-10-09T09:05:53.222Z,100.00
2022-10-09T09:08:31.867Z,100.00
2022-10-09T09:11:21.439Z,100.00
2022-10-09T09:14:21.955Z,100.00
2022-10-09T09:16:54.749Z,94.74
2022-10-09T09:19:33.874Z,97.46
2022-10-09T09:22:01.173Z,97.75
2022-10-09T09:24:35.462Z,96.23
2022-10-09T09:27:13.235Z,93.71
2022-10-09T09:29:45.303Z,93.41
2022-10-09T09:32:22.497Z,91.15
2022-10-09T09:34:54.184Z,89.51
2022-10-09T09:37:21.495Z,88.60
2022-10-09T09:40:34.941Z,90.60
2022-10-09T09:42:35.777Z,91.81
2022-10-09T09:45:05.366Z,90.93
2022-10-09T09:47:40.730Z,85.00
2022-10-09T09:50:28.561Z,84.13
2022-10-09T09:53:01.870Z,83.91
2022-10-09T09:55:31.586Z,85.15
2022-10-09T09:58:07.338Z,85.68
2022-10-09T10:00:35.451Z,83.43
2022-10-09T10:03:17.045Z,88.89
2022-10-09T10:05:44.957Z,88.16
2022-10-09T10:08:22.841Z,85.67
2022-10-09T10:10:51.764Z,84.76
2022-10-09T10:13:21.812Z,84.52
2022-10-09T10:15:54.750Z,83.82
2022-10-09T10:18:24.668Z,84.92
2022-10-09T10:20:55.596Z,81.11
2022-10-09T10:23:33.311Z,79.45
2022-10-09T10:26:07.062Z,83.07
2022-10-09T10:28:41.521Z,80.67
2022-10-09T10:31:15.179Z,79.76
2022-10-09T10:33:43.116Z,78.35
2022-10-09T10:36:11.005Z,79.00
2022-10-09T10:38:55.670Z,78.33
2022-10-09T10:41:32.536Z,76.66
2022-10-09T10:44:08.318Z,72.67
2022-10-09T10:46:44.534Z,75.06
2022-10-09T10:49:11.929Z,77.92
2022-10-09T10:51:45.090Z,78.11
2022-10-09T10:54:27.243Z,76.60
2022-10-09T10:57:05.790Z,74.50
2022-10-09T10:59:39.472Z,73.87
2022-10-09T11:02:09.868Z,73.48
2022-10-09T11:04:47.086Z,72.37
2022-10-09T11:07:17.057Z,73.11
2022-10-09T11:10:11.408Z,71.34
2022-10-09T11:12:53.064Z,68.25
2022-10-09T11:15:34.231Z,70.72
2022-10-09T11:18:16.748Z,69.44
2022-10-09T11:21:19.166Z,68.36
2022-10-09T11:24:11.895Z,67.13
2022-10-09T11:27:50.509Z,67.10
2022-10-09T11:30:18.443Z,65.33
2022-10-09T11:32:45.378Z,64.07
2022-10-09T11:35:12.337Z,65.16
2022-10-09T11:37:42.201Z,66.02
2022-10-09T11:40:15.515Z,66.02
2022-10-09T11:42:43.311Z,63.80
2022-10-09T11:45:27.215Z,64.02
2022-10-09T11:48:08.561Z,63.22
2022-10-09T11:51:06.393Z,65.55
2022-10-09T11:53:37.045Z,63.94
2022-10-09T11:56:06.356Z,64.17
2022-10-09T11:58:34.101Z,63.44
2022-10-09T12:01:13.780Z,63.26
2022-10-09T12:03:41.595Z,63.16
2022-10-09T12:06:13.625Z,63.58
2022-10-09T12:09:02.235Z,65.06
2022-10-09T12:11:29.977Z,65.97
2022-10-09T12:14:02.888Z,65.40
2022-10-09T12:16:40.939Z,63.55
2022-10-09T12:19:20.456Z,63.61
2022-10-09T12:21:51.119Z,63.83
2022-10-09T12:24:22.954Z,63.36
2022-10-09T12:26:51.289Z,63.42
2022-10-09T12:29:27.882Z,65.69
2022-10-09T12:31:58.538Z,64.08
2022-10-09T12:34:36.755Z,64.13
2022-10-09T12:37:36.349Z,63.90
2022-10-09T12:40:10.402Z,64.07
2022-10-09T12:42:37.293Z,64.52
2022-10-09T12:45:05.527Z,63.49
2022-10-09T12:47:34.882Z,64.94
2022-10-09T12:50:17.197Z,64.81
2022-10-09T12:52:57.354Z,63.23
2022-10-09T12:55:36.270Z,62.21
2022-10-09T12:58:12.053Z,62.68
2022-10-09T13:00:39.844Z,63.15
2022-10-09T13:03:37.870Z,62.24
2022-10-09T13:06:08.026Z,62.34
2022-10-09T13:08:38.214Z,62.06
2022-10-09T13:11:35.306Z,60.88
2022-10-09T13:14:03.077Z,60.34
2022-10-09T13:16:44.864Z,61.63
2022-10-09T13:19:38.492Z,60.06
2022-10-09T13:22:16.059Z,61.18
2022-10-09T13:24:43.426Z,61.58
2022-10-09T13:27:12.019Z,61.71
2022-10-09T13:29:39.229Z,59.00
2022-10-09T13:32:08.967Z,57.92
2022-10-09T13:34:35.921Z,61.84
2022-10-09T13:37:02.909Z,58.77
2022-10-09T13:39:30.222Z,60.00
2022-10-09T13:41:59.021Z,59.64
2022-10-09T13:44:26.246Z,59.46
2022-10-09T13:46:53.606Z,59.93
2022-10-09T13:49:20.640Z,66.62
2022-10-09T13:51:47.659Z,67.32
2022-10-09T13:54:17.797Z,69.07
2022-10-09T13:56:44.817Z,67.66
2022-10-09T13:59:12.160Z,68.89
2022-10-09T14:01:39.551Z,69.57
2022-10-09T14:04:06.909Z,68.50
2022-10-09T14:06:36.076Z,69.46
2022-10-09T14:09:05.224Z,67.08
2022-10-09T14:11:32.714Z,68.51
2022-10-09T14:13:59.775Z,70.45
2022-10-09T14:16:27.722Z,70.51
2022-10-09T14:19:03.378Z,68.34
2022-10-09T14:21:30.581Z,69.01
2022-10-09T14:23:59.899Z,68.61
2022-10-09T14:26:27.614Z,69.46
2022-10-09T14:28:59.122Z,68.07
2022-10-09T14:31:26.701Z,71.16
2022-10-09T14:33:56.747Z,70.63
2022-10-09T14:36:23.952Z,73.37
2022-10-09T14:38:51.306Z,73.33
2022-10-09T14:41:18.623Z,71.32
2022-10-09T14:43:46.765Z,73.63
2022-10-09T14:46:17.118Z,75.09
2022-10-09T14:48:45.482Z,76.30
2022-10-09T14:51:15.249Z,74.80
2022-10-09T14:53:42.699Z,72.74
2022-10-09T14:56:16.224Z,73.67
2022-10-09T14:58:43.522Z,75.37
2022-10-09T15:01:15.097Z,77.26
2022-10-09T15:03:42.709Z,78.01
2022-10-09T15:06:11.813Z,79.09
2022-10-09T15:08:40.939Z,79.95
2022-10-09T15:11:09.382Z,80.73
2022-10-09T15:13:37.279Z,81.68
2022-10-09T15:16:07.054Z,82.86
2022-10-09T15:18:34.326Z,83.67
2022-10-09T15:21:01.846Z,84.81
2022-10-09T15:23:29.038Z,86.09
2022-10-09T15:25:57.891Z,87.77
2022-10-09T15:28:25.599Z,88.25
2022-10-09T15:30:59.616Z,90.41
2022-10-09T15:33:27.561Z,90.98
2022-10-09T15:35:54.613Z,91.77
2022-10-09T15:38:23.728Z,91.67
2022-10-09T15:40:55.579Z,91.71
2022-10-09T15:43:26.049Z,91.71
2022-10-09T15:46:01.551Z,86.83
2022-10-09T15:48:28.518Z,86.88
2022-10-09T15:50:55.851Z,85.25
2022-10-09T15:53:24.467Z,83.15
2022-10-09T15:55:53.082Z,81.87
2022-10-09T15:58:20.750Z,82.38
2022-10-09T16:00:49.333Z,81.00
2022-10-09T16:03:18.962Z,78.92
2022-10-09T16:05:48.922Z,79.77
2022-10-09T16:08:17.451Z,79.19
2022-10-09T16:10:49.534Z,79.62
2022-10-09T16:13:16.882Z,79.71
2022-10-09T16:15:47.030Z,79.60
2022-10-09T16:18:15.528Z,79.85
2022-10-09T16:20:42.814Z,78.50
2022-10-09T16:23:10.232Z,77.40
2022-10-09T16:25:38.323Z,76.26
2022-10-09T16:28:07.058Z,76.59
2022-10-09T16:30:39.688Z,77.06
2022-10-09T16:33:12.238Z,76.39
2022-10-09T16:35:40.199Z,77.27
2022-10-09T16:38:07.653Z,76.81
2022-10-09T16:41:00.870Z,77.15
2022-10-09T16:43:22.301Z,79.38
2022-10-09T16:45:49.327Z,81.27
2022-10-09T16:48:16.336Z,80.02
2022-10-09T16:50:43.608Z,80.64
2022-10-09T16:53:10.644Z,82.31
2022-10-09T16:55:37.675Z,84.02
2022-10-09T16:58:05.190Z,84.46
2022-10-09T17:00:32.253Z,85.15
2022-10-09T17:02:59.352Z,87.17
2022-10-09T17:05:28.142Z,89.02
2022-10-09T17:07:55.185Z,83.41
2022-10-09T17:10:22.282Z,85.04
2022-10-09T17:12:49.608Z,88.10
2022-10-09T17:15:16.668Z,89.03
2022-10-09T17:17:43.668Z,89.61
2022-10-09T17:20:10.993Z,90.15
2022-10-09T17:22:38.011Z,91.45
2022-10-09T17:25:05.665Z,92.68
2022-10-09T17:27:33.467Z,92.61
2022-10-09T17:30:00.454Z,93.52
2022-10-09T17:32:27.554Z,93.11
2022-10-09T17:34:54.821Z,93.81
2022-10-09T17:37:21.861Z,94.26
2022-10-09T17:39:52.383Z,93.16
2022-10-09T17:42:19.861Z,93.14
2022-10-09T17:44:46.888Z,94.27
2022-10-09T17:47:13.886Z,94.09
2022-10-09T17:49:41.257Z,93.95
2022-10-09T17:52:08.274Z,94.20
2022-10-09T17:54:35.266Z,94.25
2022-10-09T17:57:05.210Z,94.85
2022-10-09T17:59:34.337Z,94.96
2022-10-09T18:02:01.370Z,95.64
2022-10-09T18:04:28.652Z,95.45
2022-10-09T18:06:55.737Z,94.80
2022-10-09T18:09:22.736Z,94.89
2022-10-09T18:11:50.059Z,95.20
2022-10-09T18:14:17.123Z,94.64
2022-10-09T18:16:44.294Z,93.46
2022-10-09T18:19:14.522Z,92.58
2022-10-09T18:21:44.255Z,92.12
2022-10-09T18:24:12.145Z,92.14
2022-10-09T18:26:39.386Z,91.71
2022-10-09T18:29:06.636Z,91.16
2022-10-09T18:31:34.402Z,90.94
2022-10-09T18:34:01.740Z,91.98
2022-10-09T18:36:34.448Z,91.58
2022-10-09T18:39:13.341Z,91.51
2022-10-09T18:41:40.667Z,91.87
2022-10-09T18:44:17.311Z,92.09
2022-10-09T18:46:56.384Z,91.90
2022-10-09T18:49:27.722Z,92.98
2022-10-09T18:51:54.993Z,93.58
2022-10-09T18:54:24.221Z,93.58
2022-10-09T18:56:51.676Z,93.36
2022-10-09T18:59:21.048Z,94.14
2022-10-09T19:01:48.501Z,93.65
2022-10-09T19:04:15.862Z,95.38
2022-10-09T19:06:42.841Z,95.58
2022-10-09T19:09:10.081Z,95.63
2022-10-09T19:11:37.386Z,95.61
2022-10-09T19:14:04.640Z,95.76
2022-10-09T19:16:33.999Z,96.48
2022-10-09T19:19:01.462Z,97.48
2022-10-09T19:21:28.519Z,96.45
2022-10-09T19:23:55.704Z,96.09
2022-10-09T19:26:23.282Z,96.12
2022-10-09T19:28:50.338Z,96.84
2022-10-09T19:31:18.306Z,96.13
2022-10-09T19:33:45.653Z,96.51
2022-10-09T19:36:13.701Z,94.91
2022-10-09T19:38:41.016Z,95.00
2022-10-09T19:41:10.545Z,94.92
2022-10-09T19:43:38.438Z,95.02
2022-10-09T19:46:11.224Z,92.38
2022-10-09T19:48:38.561Z,92.48
2022-10-09T19:51:14.296Z,91.73
2022-10-09T19:53:43.383Z,92.47
2022-10-09T19:56:17.065Z,92.44
2022-10-09T19:58:44.832Z,92.01
2022-10-09T20:01:17.536Z,93.50
2022-10-09T20:03:45.006Z,93.23
2022-10-09T20:06:12.496Z,91.57
2022-10-09T20:08:40.908Z,91.75
2022-10-09T20:11:11.292Z,91.14
2022-10-09T20:13:39.684Z,91.82
2022-10-09T20:16:10.335Z,90.66
2022-10-09T20:18:42.357Z,90.77
2022-10-09T20:21:14.730Z,89.33
2022-10-09T20:23:44.269Z,90.62
2022-10-09T20:26:13.762Z,90.79
2022-10-09T20:28:41.100Z,90.98
2022-10-09T20:31:14.679Z,91.64
2022-10-09T20:33:42.497Z,92.52
2022-10-09T20:36:28.745Z,93.18
2022-10-09T20:38:57.569Z,93.97
2022-10-09T20:41:25.960Z,94.60
2022-10-09T20:43:54.068Z,96.81
2022-10-09T20:46:23.754Z,96.13
2022-10-09T20:48:52.053Z,96.47
2022-10-09T20:51:19.832Z,96.95
2022-10-09T20:53:51.243Z,96.94
2022-10-09T20:56:19.247Z,96.82
2022-10-09T20:58:46.264Z,97.73
2022-10-09T21:01:15.388Z,95.85
2022-10-09T21:03:43.503Z,96.04
2022-10-09T21:06:13.504Z,95.07
2022-10-09T21:08:40.545Z,93.95
2022-10-09T21:11:10.116Z,93.67
2022-10-09T21:13:38.089Z,93.37
2022-10-09T21:16:06.704Z,92.75
2022-10-09T21:18:34.342Z,91.41
2022-10-09T21:21:19.380Z,91.46
2022-10-09T21:23:51.297Z,91.51
2022-10-09T21:26:19.441Z,91.87
2022-10-09T21:28:47.218Z,91.15
2022-10-09T21:31:23.431Z,91.42
2022-10-09T21:33:50.747Z,90.13
2022-10-09T21:36:51.117Z,89.97
2022-10-09T21:39:27.651Z,88.41
2022-10-09T21:41:55.298Z,90.11
2022-10-09T21:44:22.272Z,90.43
2022-10-09T21:46:49.584Z,89.85
2022-10-09T21:49:23.806Z,89.23
2022-10-09T21:51:51.566Z,88.89
2022-10-09T21:54:18.663Z,88.78
2022-10-09T21:56:45.692Z,87.93
2022-10-09T21:59:13.298Z,88.07
2022-10-09T22:01:40.338Z,88.23
2022-10-09T22:04:08.013Z,89.40
2022-10-09T22:06:34.972Z,87.82
2022-10-09T22:09:01.977Z,89.03
2022-10-09T22:11:29.282Z,87.29
2022-10-09T22:13:56.270Z,88.22
2022-10-09T22:16:23.524Z,87.80
2022-10-09T22:18:50.864Z,86.92
2022-10-09T22:21:18.327Z,86.45
2022-10-09T22:23:45.451Z,87.23
2022-10-09T22:26:18.226Z,87.50
2022-10-09T22:28:47.062Z,86.88
2022-10-09T22:31:19.544Z,85.76
2022-10-09T22:33:54.527Z,85.85
2022-10-09T22:36:24.108Z,85.60
2022-10-09T22:38:55.971Z,86.87
2022-10-09T22:41:24.156Z,86.19
2022-10-09T22:43:53.571Z,86.94
2022-10-09T22:46:23.373Z,87.55
2022-10-09T22:48:51.310Z,87.93
2022-10-09T22:51:19.533Z,88.78
2022-10-09T22:53:47.245Z,89.27
2022-10-09T22:56:22.503Z,89.99
2022-10-09T22:58:51.711Z,89.71
2022-10-09T23:01:29.973Z,89.90
2022-10-09T23:04:02.263Z,90.25
2022-10-09T23:06:29.600Z,90.06
2022-10-09T23:08:57.109Z,89.66
2022-10-09T23:11:24.811Z,89.41
2022-10-09T23:13:56.737Z,89.39
2022-10-09T23:16:24.606Z,88.70
2022-10-09T23:18:51.891Z,88.22
2022-10-09T23:21:21.877Z,87.79
2022-10-09T23:23:49.742Z,87.74
2022-10-09T23:26:22.730Z,87.27
2022-10-09T23:28:51.575Z,87.21
2022-10-09T23:31:19.369Z,87.08
2022-10-09T23:33:46.634Z,87.47
2022-10-09T23:36:16.936Z,87.51
2022-10-09T23:38:44.327Z,87.11
2022-10-09T23:41:14.407Z,86.21
2022-10-09T23:43:42.767Z,86.42
2022-10-09T23:46:13.316Z,87.37
2022-10-09T23:48:40.331Z,87.03
2022-10-09T23:51:07.516Z,87.20
2022-10-09T23:53:35.496Z,86.80
2022-10-09T23:56:26.262Z,87.30
2022-10-09T23:58:54.650Z,87.33
